createdAt,value
2023-03-05T00:02:25.936Z,2.35
2023-03-05T00:04:58.651Z,1.48
2023-03-05T00:07:31.619Z,1.63
2023-03-05T00:10:06.966Z,1.48
2023-03-05T00:12:39.686Z,0.90
2023-03-05T00:15:12.863Z,1.70
2023-03-05T00:17:46.939Z,1.40
2023-03-05T00:20:19.764Z,1.70
2023-03-05T00:22:52.818Z,1.48
2023-03-05T00:27:58.134Z,1.50
2023-03-05T00:30:31.872Z,1.58
2023-03-05T00:33:06.247Z,1.10
2023-03-05T00:35:41.335Z,1.38
2023-03-05T00:38:14.713Z,1.17
2023-03-05T00:40:47.433Z,1.30
2023-03-05T00:43:20.292Z,1.75
2023-03-05T00:48:26.948Z,1.15
2023-03-05T00:50:59.614Z,1.15
2023-03-05T00:53:33.431Z,1.30
2023-03-05T00:56:07.502Z,1.00
2023-03-05T00:58:40.877Z,1.40
2023-03-05T01:01:14.848Z,1.38
2023-03-05T01:03:49.147Z,1.20
2023-03-05T01:06:21.867Z,1.10
2023-03-05T01:08:54.685Z,1.20
2023-03-05T01:11:27.442Z,2.13
2023-03-05T01:14:00.234Z,1.35
2023-03-05T01:16:33.530Z,1.10
2023-03-05T01:19:07.797Z,1.20
2023-03-05T01:21:40.572Z,1.30
2023-03-05T01:24:13.564Z,0.95
2023-03-05T01:29:19.134Z,0.82
2023-03-05T01:34:26.130Z,0.98
2023-03-05T01:36:58.809Z,0.82
2023-03-05T01:39:32.049Z,1.08
2023-03-05T01:42:05.211Z,1.23
2023-03-05T01:44:38.695Z,1.10
2023-03-05T01:47:11.580Z,1.52
2023-03-05T01:49:45.943Z,0.80
2023-03-05T01:52:21.037Z,1.30
2023-03-05T01:54:57.238Z,1.13
2023-03-05T01:57:34.415Z,0.80
2023-03-05T02:00:11.611Z,1.00
2023-03-05T02:02:51.687Z,1.02
2023-03-05T02:05:30.874Z,1.23
2023-03-05T02:08:06.083Z,1.90
2023-03-05T02:10:40.727Z,0.80
2023-03-05T02:13:16.392Z,1.38
2023-03-05T02:15:49.798Z,1.20
2023-03-05T02:18:23.246Z,0.93
2023-03-05T02:21:02.377Z,1.25
2023-03-05T02:23:37.287Z,1.30
2023-03-05T02:26:11.805Z,1.00
2023-03-05T02:28:48.315Z,0.60
2023-03-05T02:31:23.088Z,1.05
2023-03-05T02:33:56.985Z,1.15
2023-03-05T02:36:32.145Z,0.98
2023-03-05T02:39:05.244Z,1.00
2023-03-05T02:41:38.758Z,1.10
2023-03-05T02:44:11.906Z,0.93
2023-03-05T02:46:44.992Z,0.75
2023-03-05T02:49:17.901Z,0.82
2023-03-05T02:54:24.728Z,0.60
2023-03-05T02:59:30.052Z,0.60
2023-03-05T03:02:03.050Z,0.60
2023-03-05T03:04:35.828Z,0.70
2023-03-05T03:07:09.922Z,0.82
2023-03-05T03:09:43.743Z,0.80
2023-03-05T03:12:16.831Z,0.80
2023-03-05T03:14:49.542Z,1.00
2023-03-05T03:17:22.402Z,0.93
2023-03-05T03:19:55.046Z,0.90
2023-03-05T03:22:29.369Z,0.65
2023-03-05T03:25:02.709Z,0.90
2023-03-05T03:27:35.874Z,0.68
2023-03-05T03:30:09.999Z,0.40
2023-03-05T03:32:42.802Z,0.75
2023-03-05T03:35:15.454Z,0.70
2023-03-05T03:37:49.928Z,0.98
2023-03-05T03:40:22.823Z,0.40
2023-03-05T03:45:28.639Z,1.15
2023-03-05T03:48:01.373Z,0.52
2023-03-05T03:50:34.070Z,0.60
2023-03-05T03:53:09.182Z,0.57
2023-03-05T03:55:43.912Z,0.80
2023-03-05T03:58:16.781Z,0.60
2023-03-05T04:00:49.547Z,1.02
2023-03-05T04:03:22.601Z,0.40
2023-03-05T04:05:55.323Z,0.57
2023-03-05T04:08:29.529Z,0.55
2023-03-05T04:11:02.559Z,0.73
2023-03-05T04:16:08.637Z,0.50
2023-03-05T04:18:41.962Z,0.47
2023-03-05T04:21:14.902Z,0.40
2023-03-05T04:26:21.903Z,1.15
2023-03-05T04:28:55.053Z,0.40
2023-03-05T04:31:27.826Z,0.90
2023-03-05T04:34:00.713Z,0.30
2023-03-05T04:36:33.462Z,0.60
2023-03-05T04:39:07.716Z,0.45
2023-03-05T04:41:40.471Z,0.50
2023-03-05T04:44:13.136Z,0.68
2023-03-05T04:46:46.014Z,0.40
2023-03-05T04:51:51.860Z,0.60
2023-03-05T04:54:25.971Z,0.68
2023-03-05T04:56:58.647Z,0.60
2023-03-05T04:59:31.498Z,0.40
2023-03-05T05:04:37.415Z,0.75
2023-03-05T05:07:10.307Z,0.68
2023-03-05T05:09:44.361Z,0.52
2023-03-05T05:12:17.192Z,0.35
2023-03-05T05:14:50.487Z,0.45
2023-03-05T05:17:23.198Z,0.40
2023-03-05T05:19:56.401Z,0.40
2023-03-05T05:22:30.159Z,0.30
2023-03-05T05:25:05.227Z,0.73
2023-03-05T05:27:38.108Z,0.50
2023-03-05T05:32:44.652Z,0.35
2023-03-05T05:35:17.766Z,0.30
2023-03-05T05:37:50.753Z,0.70
2023-03-05T05:42:57.797Z,0.55
2023-03-05T05:45:30.878Z,0.50
2023-03-05T05:48:03.756Z,0.70
2023-03-05T05:50:36.641Z,0.60
2023-03-05T05:53:09.348Z,0.32
2023-03-05T05:55:43.517Z,0.65
2023-03-05T05:58:16.258Z,0.32
2023-03-05T06:00:49.095Z,0.40
2023-03-05T06:05:54.658Z,1.17
2023-03-05T06:08:27.381Z,0.47
2023-03-05T06:11:01.567Z,0.70
2023-03-05T06:13:34.546Z,0.77
2023-03-05T06:18:41.658Z,0.70
2023-03-05T06:21:17.129Z,0.60
2023-03-05T06:23:51.554Z,0.50
2023-03-05T06:26:26.375Z,0.50
2023-03-05T06:28:59.170Z,0.70
2023-03-05T06:31:32.450Z,0.60
2023-03-05T06:34:05.264Z,0.73
2023-03-05T06:36:40.601Z,0.47
2023-03-05T06:39:13.389Z,0.73
2023-03-05T06:41:47.744Z,0.70
2023-03-05T06:44:20.457Z,0.52
2023-03-05T06:46:53.162Z,0.50
2023-03-05T06:49:26.021Z,0.45
2023-03-05T06:51:58.766Z,0.32
2023-03-05T06:54:31.579Z,0.50
2023-03-05T06:57:06.072Z,1.33
2023-03-05T06:59:38.846Z,0.47
2023-03-05T07:02:13.626Z,0.50
2023-03-05T07:04:46.452Z,0.50
2023-03-05T07:07:19.383Z,0.50
2023-03-05T07:12:28.184Z,0.73
2023-03-05T07:15:01.203Z,0.30
2023-03-05T07:20:08.381Z,0.50
2023-03-05T07:22:41.705Z,0.40
2023-03-05T07:25:19.282Z,0.63
2023-03-05T07:27:53.481Z,0.43
2023-03-05T07:30:26.487Z,1.00
2023-03-05T07:35:32.162Z,0.57
2023-03-05T07:38:05.059Z,0.30
2023-03-05T07:40:37.966Z,0.68
2023-03-05T07:43:13.897Z,0.65
2023-03-05T07:45:47.585Z,0.50
2023-03-05T07:48:21.863Z,0.38
2023-03-05T07:51:01.984Z,1.23
2023-03-05T07:53:34.840Z,0.50
2023-03-05T07:56:08.239Z,0.40
2023-03-05T07:58:42.367Z,0.60
2023-03-05T08:01:15.331Z,0.60
2023-03-05T08:06:21.119Z,0.68
2023-03-05T08:11:28.437Z,0.52
2023-03-05T08:14:02.672Z,0.65
2023-03-05T08:16:35.606Z,0.60
2023-03-05T08:19:08.729Z,0.55
2023-03-05T08:21:41.680Z,0.60
2023-03-05T08:24:15.127Z,1.27
2023-03-05T08:26:47.887Z,0.50
2023-03-05T08:29:22.023Z,0.63
2023-03-05T08:31:55.768Z,1.20
2023-03-05T08:34:28.864Z,0.70
2023-03-05T08:37:01.641Z,0.50
2023-03-05T08:39:34.359Z,1.83
2023-03-05T08:42:09.014Z,1.27
2023-03-05T08:44:43.240Z,1.23
2023-03-05T08:47:16.103Z,1.50
2023-03-05T08:49:48.839Z,1.38
2023-03-05T08:52:21.555Z,1.50
2023-03-05T08:54:54.401Z,1.50
2023-03-05T08:57:27.412Z,1.90
2023-03-05T09:02:34.358Z,1.60
2023-03-05T09:07:40.337Z,1.30
2023-03-05T09:12:49.138Z,1.40
2023-03-05T09:15:23.301Z,1.58
2023-03-05T09:17:56.616Z,1.30
2023-03-05T09:20:29.687Z,1.55
2023-03-05T09:23:02.441Z,1.83
2023-03-05T09:25:35.249Z,1.13
2023-03-05T09:28:08.180Z,0.85
2023-03-05T09:33:15.826Z,1.10
2023-03-05T09:35:49.006Z,0.93
2023-03-05T09:38:21.913Z,1.80
2023-03-05T09:41:02.306Z,1.98
2023-03-05T09:43:45.674Z,1.50
2023-03-05T09:46:31.338Z,2.00
2023-03-05T09:49:16.013Z,0.73
2023-03-05T09:51:56.014Z,0.88
2023-03-05T09:54:38.287Z,1.35
2023-03-05T09:57:18.424Z,1.40
2023-03-05T09:59:55.110Z,1.50
2023-03-05T10:02:35.679Z,1.02
2023-03-05T10:05:19.628Z,1.00
2023-03-05T10:07:56.356Z,0.90
2023-03-05T10:10:40.497Z,0.80
2023-03-05T10:13:17.685Z,0.98
2023-03-05T10:15:59.739Z,1.23
2023-03-05T10:18:38.184Z,1.10
2023-03-05T10:21:14.884Z,1.00
2023-03-05T10:24:10.515Z,0.90
2023-03-05T10:26:58.197Z,0.80
2023-03-05T10:29:54.253Z,0.60
2023-03-05T10:32:40.028Z,0.60
2023-03-05T10:35:33.155Z,0.73
2023-03-05T10:38:26.611Z,0.68
2023-03-05T10:41:05.754Z,1.10
2023-03-05T10:43:46.511Z,0.90
2023-03-05T10:46:22.799Z,0.85
2023-03-05T10:49:00.168Z,1.05
2023-03-05T10:51:38.953Z,0.65
2023-03-05T10:54:19.922Z,0.77
2023-03-05T10:57:03.371Z,0.40
2023-03-05T10:59:36.090Z,0.50
2023-03-05T11:02:10.020Z,0.60
2023-03-05T11:04:43.420Z,1.23
2023-03-05T11:07:36.883Z,0.60
2023-03-05T11:12:49.969Z,0.98
2023-03-05T11:18:24.254Z,0.95
2023-03-05T11:21:09.512Z,0.98
2023-03-05T11:23:44.570Z,0.85
2023-03-05T11:26:23.138Z,1.33
2023-03-05T11:29:01.327Z,0.70
2023-03-05T11:31:34.909Z,0.88
2023-03-05T11:34:23.363Z,0.90
2023-03-05T11:37:06.166Z,0.85
2023-03-05T11:39:41.328Z,0.60
2023-03-05T11:42:19.281Z,0.80
2023-03-05T11:44:55.987Z,0.60
2023-03-05T11:47:34.715Z,0.40
2023-03-05T11:50:20.193Z,0.88
2023-03-05T11:52:55.617Z,0.70
2023-03-05T11:55:35.716Z,0.70
2023-03-05T11:58:32.465Z,0.40
2023-03-05T12:01:13.883Z,0.73
2023-03-05T12:03:47.747Z,0.32
2023-03-05T12:06:30.366Z,0.50
2023-03-05T12:09:08.627Z,0.35
2023-03-05T12:11:46.235Z,0.60
2023-03-05T12:14:25.733Z,0.43
2023-03-05T12:17:06.402Z,0.70
2023-03-05T12:19:53.646Z,0.43
2023-03-05T12:22:33.508Z,0.52
2023-03-05T12:25:26.643Z,0.50
2023-03-05T12:28:01.401Z,0.77
2023-03-05T12:31:00.004Z,0.50
2023-03-05T12:33:36.506Z,0.40
2023-03-05T12:36:35.630Z,0.50
2023-03-05T12:39:47.659Z,0.73
2023-03-05T12:42:46.753Z,0.68
2023-03-05T12:45:39.843Z,0.50
2023-03-05T12:48:46.577Z,0.45
2023-03-05T12:51:36.200Z,0.60
2023-03-05T12:54:28.195Z,0.55
2023-03-05T12:57:02.553Z,0.80
2023-03-05T12:59:43.916Z,0.52
2023-03-05T13:02:32.694Z,0.57
2023-03-05T13:05:13.170Z,0.45
2023-03-05T13:07:46.038Z,0.65
2023-03-05T13:10:24.440Z,0.68
2023-03-05T13:12:59.002Z,0.70
2023-03-05T13:15:33.263Z,0.63
2023-03-05T13:18:19.860Z,1.08
2023-03-05T13:21:02.523Z,0.60
2023-03-05T13:23:36.292Z,0.50
2023-03-05T13:26:15.446Z,0.40
2023-03-05T13:29:06.173Z,0.52
2023-03-05T13:31:44.174Z,0.50
2023-03-05T13:34:22.105Z,0.70
2023-03-05T13:36:58.758Z,0.82
2023-03-05T13:39:35.729Z,0.73
2023-03-05T13:42:17.952Z,0.60
2023-03-05T13:44:57.714Z,0.73
2023-03-05T13:47:32.676Z,0.60
2023-03-05T13:50:22.890Z,0.90
2023-03-05T13:52:58.375Z,0.68
2023-03-05T13:55:32.110Z,0.88
2023-03-05T13:58:04.768Z,0.70
2023-03-05T14:00:38.974Z,0.70
2023-03-05T14:03:22.046Z,0.93
2023-03-05T14:05:56.276Z,1.08
2023-03-05T14:08:29.874Z,1.10
2023-03-05T14:11:14.537Z,0.77
2023-03-05T14:13:49.649Z,0.80
2023-03-05T14:16:28.150Z,0.70
2023-03-05T14:19:02.755Z,0.70
2023-03-05T14:21:52.162Z,0.80
2023-03-05T14:24:28.733Z,0.90
2023-03-05T14:27:05.768Z,0.90
2023-03-05T14:29:39.004Z,0.90
2023-03-05T14:32:24.330Z,0.70
2023-03-05T14:34:59.762Z,1.30
2023-03-05T14:37:36.904Z,1.35
2023-03-05T14:40:22.007Z,0.60
2023-03-05T14:42:56.977Z,1.30
2023-03-05T14:45:32.690Z,0.65
2023-03-05T14:48:07.752Z,0.90
2023-03-05T14:50:44.876Z,0.90
2023-03-05T14:53:22.900Z,0.55
2023-03-05T14:55:57.337Z,0.88
2023-03-05T14:58:35.447Z,0.63
2023-03-05T15:01:08.557Z,0.70
2023-03-05T15:03:42.087Z,0.98
2023-03-05T15:06:25.628Z,0.80
2023-03-05T15:09:00.892Z,0.70
2023-03-05T15:11:33.546Z,0.90
2023-03-05T15:14:06.460Z,0.65
2023-03-05T15:16:40.693Z,0.80
2023-03-05T15:19:13.907Z,0.65
2023-03-05T15:21:46.792Z,0.60
2023-03-05T15:26:53.886Z,0.82
2023-03-05T15:29:26.860Z,0.90
2023-03-05T15:32:01.041Z,0.80
2023-03-05T15:34:34.848Z,0.80
2023-03-05T15:37:07.599Z,0.85
2023-03-05T15:42:16.812Z,0.65
2023-03-05T15:44:49.725Z,0.75
2023-03-05T15:49:55.289Z,0.40
2023-03-05T15:52:28.186Z,0.73
2023-03-05T15:55:02.723Z,0.60
2023-03-05T15:57:37.976Z,0.70
2023-03-05T16:00:12.390Z,0.65
2023-03-05T16:02:45.201Z,0.60
2023-03-05T16:05:18.729Z,0.70
2023-03-05T16:07:53.397Z,0.90
2023-03-05T16:10:29.703Z,0.77
2023-03-05T16:13:06.644Z,0.60
2023-03-05T16:15:42.345Z,0.50
2023-03-05T16:18:18.662Z,0.55
2023-03-05T16:20:52.333Z,0.52
2023-03-05T16:23:25.104Z,0.77
2023-03-05T16:25:59.844Z,1.00
2023-03-05T16:28:32.654Z,0.60
2023-03-05T16:31:06.020Z,0.47
2023-03-05T16:33:38.886Z,0.60
2023-03-05T16:38:55.341Z,0.70
2023-03-05T16:41:29.842Z,0.40
2023-03-05T16:44:02.598Z,0.73
2023-03-05T16:46:35.751Z,0.50
2023-03-05T16:49:10.047Z,0.43
2023-03-05T16:51:46.803Z,1.13
2023-03-05T16:54:20.005Z,0.80
2023-03-05T16:56:54.575Z,0.70
2023-03-05T16:59:27.331Z,0.63
2023-03-05T17:04:33.594Z,0.60
2023-03-05T17:07:06.970Z,0.70
2023-03-05T17:09:39.765Z,1.15
2023-03-05T17:12:13.841Z,0.70
2023-03-05T17:14:46.588Z,0.70
2023-03-05T17:17:19.394Z,0.80
2023-03-05T17:19:52.021Z,0.60
2023-03-05T17:22:24.757Z,1.10
2023-03-05T17:24:57.913Z,0.68
2023-03-05T17:27:32.070Z,0.68
2023-03-05T17:30:05.431Z,0.80
2023-03-05T17:32:38.255Z,0.70
2023-03-05T17:35:18.157Z,0.90
2023-03-05T17:37:51.690Z,1.27
2023-03-05T17:40:25.454Z,0.93
2023-03-05T17:42:59.667Z,0.80
2023-03-05T17:45:32.396Z,0.80
2023-03-05T17:48:06.686Z,0.93
2023-03-05T17:50:40.122Z,0.70
2023-03-05T17:53:13.018Z,0.60
2023-03-05T17:58:20.191Z,0.93
2023-03-05T18:00:53.667Z,1.80
2023-03-05T18:03:27.124Z,0.95
2023-03-05T18:06:00.229Z,0.90
2023-03-05T18:08:33.460Z,0.93
2023-03-05T18:11:06.359Z,0.90
2023-03-05T18:16:16.764Z,0.90
2023-03-05T18:18:49.538Z,0.93
2023-03-05T18:21:24.399Z,0.80
2023-03-05T18:23:57.215Z,0.80
2023-03-05T18:26:29.837Z,1.08
2023-03-05T18:29:04.318Z,1.20
2023-03-05T18:31:37.086Z,0.90
2023-03-05T18:34:09.741Z,0.80
2023-03-05T18:36:42.473Z,0.90
2023-03-05T18:39:16.289Z,1.02
2023-03-05T18:41:49.530Z,0.90
2023-03-05T18:44:23.891Z,1.13
2023-03-05T18:46:57.930Z,1.00
2023-03-05T18:49:31.112Z,1.08
2023-03-05T18:52:04.698Z,0.90
2023-03-05T18:54:37.602Z,1.02
2023-03-05T18:59:44.371Z,1.20
2023-03-05T19:02:18.062Z,1.05
2023-03-05T19:04:50.803Z,1.17
2023-03-05T19:07:29.682Z,1.10
2023-03-05T19:10:07.352Z,1.10
2023-03-05T19:12:49.016Z,0.88
2023-03-05T19:15:23.544Z,1.20
2023-03-05T19:17:56.308Z,0.93
2023-03-05T19:20:29.387Z,1.00
2023-03-05T19:23:02.036Z,1.10
2023-03-05T19:25:36.507Z,1.23
2023-03-05T19:28:09.535Z,1.20
2023-03-05T19:30:44.483Z,1.40
2023-03-05T19:33:17.193Z,1.27
2023-03-05T19:35:50.885Z,1.58
2023-03-05T19:38:24.917Z,1.52
2023-03-05T19:40:57.739Z,1.33
2023-03-05T19:43:30.544Z,1.50
2023-03-05T19:46:06.762Z,1.25
2023-03-05T19:48:41.252Z,1.60
2023-03-05T19:51:16.279Z,1.30
2023-03-05T19:53:49.199Z,1.10
2023-03-05T19:56:22.632Z,1.35
2023-03-05T19:58:55.377Z,1.73
2023-03-05T20:01:29.594Z,1.67
2023-03-05T20:04:04.498Z,1.85
2023-03-05T20:06:37.182Z,1.50
2023-03-05T20:09:10.610Z,1.40
2023-03-05T20:11:43.571Z,1.42
2023-03-05T20:14:16.395Z,1.45
2023-03-05T20:19:23.248Z,1.65
2023-03-05T20:21:55.966Z,1.73
2023-03-05T20:24:28.766Z,1.50
2023-03-05T20:27:01.604Z,1.80
2023-03-05T20:29:34.286Z,1.70
2023-03-05T20:32:08.558Z,1.50
2023-03-05T20:34:41.377Z,1.85
2023-03-05T20:37:14.147Z,1.42
2023-03-05T20:39:46.857Z,1.98
2023-03-05T20:42:19.716Z,1.80
2023-03-05T20:44:52.371Z,1.60
2023-03-05T20:47:37.364Z,2.03
2023-03-05T20:50:11.394Z,2.15
2023-03-05T20:52:44.734Z,1.75
2023-03-05T20:55:17.421Z,2.08
2023-03-05T20:57:50.199Z,1.90
2023-03-05T21:00:23.131Z,1.75
2023-03-05T21:05:31.356Z,1.67
2023-03-05T21:08:05.475Z,2.10
2023-03-05T21:10:39.579Z,2.13
2023-03-05T21:13:12.444Z,2.20
2023-03-05T21:18:19.433Z,2.40
2023-03-05T21:20:52.124Z,2.90
2023-03-05T21:23:24.910Z,2.22
2023-03-05T21:25:57.805Z,2.28
2023-03-05T21:31:07.911Z,2.40
2023-03-05T21:33:42.225Z,2.40
2023-03-05T21:36:18.853Z,2.05
2023-03-05T21:38:51.787Z,1.85
2023-03-05T21:41:26.272Z,2.45
2023-03-05T21:44:04.057Z,2.35
2023-03-05T21:46:37.470Z,1.90
2023-03-05T21:49:11.618Z,1.95
2023-03-05T21:51:56.941Z,2.30
2023-03-05T21:54:29.837Z,2.10
2023-03-05T21:59:36.199Z,2.40
2023-03-05T22:02:12.090Z,1.70
2023-03-05T22:04:46.863Z,1.65
2023-03-05T22:07:20.303Z,1.55
2023-03-05T22:09:55.677Z,1.52
2023-03-05T22:12:42.996Z,1.52
2023-03-05T22:15:15.775Z,1.70
2023-03-05T22:17:48.623Z,1.75
2023-03-05T22:20:22.878Z,1.70
2023-03-05T22:22:55.575Z,1.90
2023-03-05T22:25:28.343Z,2.00
2023-03-05T22:28:01.095Z,1.63
2023-03-05T22:30:34.381Z,2.10
2023-03-05T22:33:07.028Z,1.55
2023-03-05T22:35:42.280Z,1.55
2023-03-05T22:38:15.377Z,1.63
2023-03-05T22:45:54.644Z,1.45
2023-03-05T22:51:01.370Z,1.50
2023-03-05T22:53:34.199Z,2.00
2023-03-05T22:56:08.270Z,1.27
2023-03-05T22:58:42.010Z,1.65
2023-03-05T23:01:15.989Z,1.50
2023-03-05T23:03:53.291Z,1.10
2023-03-05T23:06:30.611Z,1.08
2023-03-05T23:09:03.251Z,1.52
2023-03-05T23:11:35.962Z,1.30
2023-03-05T23:14:08.651Z,1.25
2023-03-05T23:16:41.369Z,1.25
2023-03-05T23:19:14.095Z,1.25
2023-03-05T23:21:48.166Z,0.90
2023-03-05T23:24:20.753Z,1.00
2023-03-05T23:26:54.006Z,1.10
2023-03-05T23:29:27.364Z,1.42
2023-03-05T23:32:00.129Z,1.58
2023-03-05T23:34:32.805Z,1.30
2023-03-05T23:37:06.855Z,0.90
2023-03-05T23:39:39.495Z,1.30
2023-03-05T23:42:12.413Z,0.95
2023-03-05T23:44:45.237Z,1.13
2023-03-05T23:47:17.897Z,0.95
2023-03-05T23:49:50.563Z,1.05
2023-03-05T23:52:24.565Z,1.27
2023-03-05T23:54:57.296Z,1.00
2023-03-05T23:57:30.476Z,0.90
